sensor_id;sensor_type;location;lat;lon;timestamp;pressure;altitude;pressure_sealevel;temperature;humidity
55068;BME280;40965;52.368;9.712;2023-03-03T00:00:11;101716.81;;;-0.41;100.00
55068;BME280;40965;52.368;9.712;2023-03-03T00:02:37;101720.44;;;-0.38;100.00
55068;BME280;40965;52.368;9.712;2023-03-03T00:05:04;101709.66;;;-0.30;100.00
55068;BME280;40965;52.368;9.712;2023-03-03T00:07:31;101713.28;;;-0.27;100.00
55068;BME280;40965;52.368;9.712;2023-03-03T00:09:58;101715.84;;;-0.27;100.00
55068;BME280;40965;52.368;9.712;2023-03-03T00:12:29;101709.00;;;-0.26;100.00
55068;BME280;40965;52.368;9.712;2023-03-03T00:14:59;101712.31;;;-0.29;100.00
55068;BME280;40965;52.368;9.712;2023-03-03T00:17:29;101707.88;;;-0.31;100.00
55068;BME280;40965;52.368;9.712;2023-03-03T00:19:57;101711.34;;;-0.31;100.00
55068;BME280;40965;52.368;9.712;2023-03-03T00:22:34;101712.16;;;-0.32;100.00
55068;BME280;40965;52.368;9.712;2023-03-03T00:25:34;101717.22;;;-0.34;100.00
55068;BME280;40965;52.368;9.712;2023-03-03T00:30:59;101731.94;;;-0.31;100.00
55068;BME280;40965;52.368;9.712;2023-03-03T00:33:30;101736.19;;;-0.31;100.00
55068;BME280;40965;52.368;9.712;2023-03-03T00:38:35;101737.41;;;-0.41;100.00
55068;BME280;40965;52.368;9.712;2023-03-03T00:41:07;101738.84;;;-0.46;100.00
55068;BME280;40965;52.368;9.712;2023-03-03T00:43:41;101740.44;;;-0.48;100.00
55068;BME280;40965;52.368;9.712;2023-03-03T00:46:08;101735.47;;;-0.45;100.00
55068;BME280;40965;52.368;9.712;2023-03-03T00:51:20;101738.84;;;-0.46;100.00
55068;BME280;40965;52.368;9.712;2023-03-03T00:53:52;101732.00;;;-0.46;100.00
55068;BME280;40965;52.368;9.712;2023-03-03T00:56:19;101729.84;;;-0.55;100.00
55068;BME280;40965;52.368;9.712;2023-03-03T00:58:46;101723.72;;;-0.57;100.00
55068;BME280;40965;52.368;9.712;2023-03-03T01:01:13;101740.13;;;-0.55;100.00
55068;BME280;40965;52.368;9.712;2023-03-03T01:03:40;101731.59;;;-0.54;100.00
55068;BME280;40965;52.368;9.712;2023-03-03T01:06:07;101722.00;;;-0.56;100.00
55068;BME280;40965;52.368;9.712;2023-03-03T01:08:34;101713.28;;;-0.60;100.00
55068;BME280;40965;52.368;9.712;2023-03-03T01:11:14;101712.22;;;-0.63;100.00
55068;BME280;40965;52.368;9.712;2023-03-03T01:13:47;101718.81;;;-0.69;100.00
55068;BME280;40965;52.368;9.712;2023-03-03T01:16:15;101725.38;;;-0.74;100.00
55068;BME280;40965;52.368;9.712;2023-03-03T01:18:42;101733.97;;;-0.73;100.00
55068;BME280;40965;52.368;9.712;2023-03-03T01:21:09;101736.66;;;-0.72;100.00
55068;BME280;40965;52.368;9.712;2023-03-03T01:23:36;101739.09;;;-0.73;100.00
55068;BME280;40965;52.368;9.712;2023-03-03T01:26:04;101735.75;;;-0.72;100.00
55068;BME280;40965;52.368;9.712;2023-03-03T01:28:32;101727.16;;;-0.73;100.00
55068;BME280;40965;52.368;9.712;2023-03-03T01:31:03;101725.31;;;-0.75;100.00
55068;BME280;40965;52.368;9.712;2023-03-03T01:33:31;101725.31;;;-0.75;100.00
55068;BME280;40965;52.368;9.712;2023-03-03T01:35:59;101719.09;;;-0.79;100.00
55068;BME280;40965;52.368;9.712;2023-03-03T01:38:26;101724.09;;;-0.82;100.00
55068;BME280;40965;52.368;9.712;2023-03-03T01:40:58;101721.31;;;-0.85;100.00
55068;BME280;40965;52.368;9.712;2023-03-03T01:43:34;101720.78;;;-0.79;100.00
55068;BME280;40965;52.368;9.712;2023-03-03T01:51:22;101738.53;;;-0.84;100.00
55068;BME280;40965;52.368;9.712;2023-03-03T01:53:55;101740.38;;;-0.81;100.00
55068;BME280;40965;52.368;9.712;2023-03-03T01:56:24;101742.16;;;-0.80;100.00
55068;BME280;40965;52.368;9.712;2023-03-03T01:59:20;101736.22;;;-0.79;100.00
55068;BME280;40965;52.368;9.712;2023-03-03T02:01:49;101741.25;;;-0.81;100.00
55068;BME280;40965;52.368;9.712;2023-03-03T02:04:16;101733.88;;;-0.75;100.00
55068;BME280;40965;52.368;9.712;2023-03-03T02:07:12;101723.88;;;-0.70;100.00
55068;BME280;40965;52.368;9.712;2023-03-03T02:10:06;101723.06;;;-0.69;100.00
55068;BME280;40965;52.368;9.712;2023-03-03T02:12:43;101719.66;;;-0.68;100.00
55068;BME280;40965;52.368;9.712;2023-03-03T02:15:25;101714.78;;;-0.63;100.00
55068;BME280;40965;52.368;9.712;2023-03-03T02:18:04;101715.72;;;-0.61;100.00
55068;BME280;40965;52.368;9.712;2023-03-03T02:21:15;101715.66;;;-0.63;100.00
55068;BME280;40965;52.368;9.712;2023-03-03T02:24:06;101713.88;;;-0.64;100.00
55068;BME280;40965;52.368;9.712;2023-03-03T02:26:38;101714.72;;;-0.65;100.00
55068;BME280;40965;52.368;9.712;2023-03-03T02:29:06;101710.28;;;-0.68;100.00
55068;BME280;40965;52.368;9.712;2023-03-03T02:31:34;101702.81;;;-0.63;100.00
55068;BME280;40965;52.368;9.712;2023-03-03T02:34:02;101710.53;;;-0.63;100.00
55068;BME280;40965;52.368;9.712;2023-03-03T02:36:35;101700.94;;;-0.65;100.00
55068;BME280;40965;52.368;9.712;2023-03-03T02:39:11;101704.44;;;-0.65;100.00
55068;BME280;40965;52.368;9.712;2023-03-03T02:41:54;101706.16;;;-0.64;100.00
55068;BME280;40965;52.368;9.712;2023-03-03T02:44:27;101706.16;;;-0.64;100.00
55068;BME280;40965;52.368;9.712;2023-03-03T02:46:55;101702.72;;;-0.64;100.00
55068;BME280;40965;52.368;9.712;2023-03-03T02:49:28;101691.47;;;-0.67;100.00
55068;BME280;40965;52.368;9.712;2023-03-03T02:51:56;101698.47;;;-0.64;100.00
55068;BME280;40965;52.368;9.712;2023-03-03T02:54:26;101697.72;;;-0.61;100.00
55068;BME280;40965;52.368;9.712;2023-03-03T02:56:55;101695.28;;;-0.60;100.00
55068;BME280;40965;52.368;9.712;2023-03-03T02:59:22;101688.84;;;-0.52;100.00
55068;BME280;40965;52.368;9.712;2023-03-03T03:01:49;101691.75;;;-0.45;100.00
55068;BME280;40965;52.368;9.712;2023-03-03T03:04:19;101694.13;;;-0.48;100.00
55068;BME280;40965;52.368;9.712;2023-03-03T03:06:47;101687.78;;;-0.55;100.00
55068;BME280;40965;52.368;9.712;2023-03-03T03:09:14;101687.56;;;-0.60;100.00
55068;BME280;40965;52.368;9.712;2023-03-03T03:11:42;101690.13;;;-0.60;100.00
55068;BME280;40965;52.368;9.712;2023-03-03T03:14:10;101698.16;;;-0.54;100.00
55068;BME280;40965;52.368;9.712;2023-03-03T03:16:37;101689.72;;;-0.51;100.00
55068;BME280;40965;52.368;9.712;2023-03-03T03:19:04;101694.97;;;-0.49;100.00
55068;BME280;40965;52.368;9.712;2023-03-03T03:21:31;101704.53;;;-0.47;100.00
55068;BME280;40965;52.368;9.712;2023-03-03T03:23:59;101704.75;;;-0.42;100.00
55068;BME280;40965;52.368;9.712;2023-03-03T03:26:26;101704.81;;;-0.41;100.00
55068;BME280;40965;52.368;9.712;2023-03-03T03:28:52;101703.06;;;-0.42;100.00
55068;BME280;40965;52.368;9.712;2023-03-03T03:31:20;101704.81;;;-0.41;100.00
55068;BME280;40965;52.368;9.712;2023-03-03T03:33:47;101701.31;;;-0.43;100.00
55068;BME280;40965;52.368;9.712;2023-03-03T03:36:14;101700.59;;;-0.40;100.00
55068;BME280;40965;52.368;9.712;2023-03-03T03:38:40;101711.09;;;-0.36;100.00
55068;BME280;40965;52.368;9.712;2023-03-03T03:41:07;101693.88;;;-0.37;100.00
55068;BME280;40965;52.368;9.712;2023-03-03T03:43:34;101699.38;;;-0.30;100.00
55068;BME280;40965;52.368;9.712;2023-03-03T03:46:00;101696.25;;;-0.25;100.00
55068;BME280;40965;52.368;9.712;2023-03-03T03:48:29;101698.91;;;-0.23;100.00
55068;BME280;40965;52.368;9.712;2023-03-03T03:50:55;101695.50;;;-0.22;100.00
55068;BME280;40965;52.368;9.712;2023-03-03T03:53:22;101697.19;;;-0.23;100.00
55068;BME280;40965;52.368;9.712;2023-03-03T03:55:48;101696.41;;;-0.22;100.00
55068;BME280;40965;52.368;9.712;2023-03-03T03:58:16;101700.56;;;-0.24;100.00
55068;BME280;40965;52.368;9.712;2023-03-03T04:00:45;101702.34;;;-0.23;100.00
55068;BME280;40965;52.368;9.712;2023-03-03T04:03:12;101703.22;;;-0.22;100.00
55068;BME280;40965;52.368;9.712;2023-03-03T04:05:39;101713.59;;;-0.21;100.00
55068;BME280;40965;52.368;9.712;2023-03-03T04:08:06;101724.84;;;-0.19;100.00
55068;BME280;40965;52.368;9.712;2023-03-03T04:10:33;101709.59;;;-0.15;100.00
55068;BME280;40965;52.368;9.712;2023-03-03T04:13:00;101713.09;;;-0.13;100.00
55068;BME280;40965;52.368;9.712;2023-03-03T04:15:26;101714.88;;;-0.12;100.00
55068;BME280;40965;52.368;9.712;2023-03-03T04:17:53;101716.59;;;-0.13;100.00
55068;BME280;40965;52.368;9.712;2023-03-03T04:20:22;101712.31;;;-0.12;100.00
55068;BME280;40965;52.368;9.712;2023-03-03T04:22:49;101720.03;;;-0.12;100.00
55068;BME280;40965;52.368;9.712;2023-03-03T04:25:16;101724.13;;;-0.16;100.00
55068;BME280;40965;52.368;9.712;2023-03-03T04:27:43;101725.75;;;-0.18;100.00
55068;BME280;40965;52.368;9.712;2023-03-03T04:30:11;101730.91;;;-0.18;100.00
55068;BME280;40965;52.368;9.712;2023-03-03T04:32:39;101721.41;;;-0.19;100.00
55068;BME280;40965;52.368;9.712;2023-03-03T04:35:06;101732.56;;;-0.19;100.00
55068;BME280;40965;52.368;9.712;2023-03-03T04:37:34;101729.44;;;-0.13;100.00
55068;BME280;40965;52.368;9.712;2023-03-03T04:40:01;101719.31;;;-0.10;100.00
55068;BME280;40965;52.368;9.712;2023-03-03T04:42:34;101720.28;;;-0.08;100.00
55068;BME280;40965;52.368;9.712;2023-03-03T04:45:02;101729.75;;;-0.07;100.00
55068;BME280;40965;52.368;9.712;2023-03-03T04:47:29;101728.06;;;-0.06;100.00
55068;BME280;40965;52.368;9.712;2023-03-03T04:49:56;101726.22;;;-0.09;100.00
55068;BME280;40965;52.368;9.712;2023-03-03T04:52:23;101730.31;;;-0.12;100.00
55068;BME280;40965;52.368;9.712;2023-03-03T04:54:49;101722.28;;;-0.19;100.00
55068;BME280;40965;52.368;9.712;2023-03-03T04:57:15;101724.84;;;-0.19;100.00
55068;BME280;40965;52.368;9.712;2023-03-03T04:59:42;101734.19;;;-0.21;100.00
55068;BME280;40965;52.368;9.712;2023-03-03T05:02:09;101740.13;;;-0.22;100.00
55068;BME280;40965;52.368;9.712;2023-03-03T05:04:37;101743.66;;;-0.20;100.00
55068;BME280;40965;52.368;9.712;2023-03-03T05:07:04;101738.78;;;-0.15;100.00
55068;BME280;40965;52.368;9.712;2023-03-03T05:09:30;101731.19;;;-0.12;100.00
55068;BME280;40965;52.368;9.712;2023-03-03T05:11:57;101737.31;;;-0.10;100.00
55068;BME280;40965;52.368;9.712;2023-03-03T05:14:23;101727.16;;;-0.07;100.00
55068;BME280;40965;52.368;9.712;2023-03-03T05:16:50;101727.81;;;-0.11;100.00
55068;BME280;40965;52.368;9.712;2023-03-03T05:19:16;101723.41;;;-0.13;100.00
55068;BME280;40965;52.368;9.712;2023-03-03T05:21:43;101722.69;;;-0.11;100.00
55068;BME280;40965;52.368;9.712;2023-03-03T05:24:12;101718.50;;;-0.09;100.00
55068;BME280;40965;52.368;9.712;2023-03-03T05:26:39;101718.56;;;-0.07;100.00
55068;BME280;40965;52.368;9.712;2023-03-03T05:29:07;101720.28;;;-0.08;100.00
55068;BME280;40965;52.368;9.712;2023-03-03T05:31:35;101707.97;;;-0.13;100.00
55068;BME280;40965;52.368;9.712;2023-03-03T05:34:01;101700.81;;;-0.19;100.00
55068;BME280;40965;52.368;9.712;2023-03-03T05:36:28;101697.19;;;-0.23;100.00
55068;BME280;40965;52.368;9.712;2023-03-03T05:38:55;101700.75;;;-0.21;100.00
55068;BME280;40965;52.368;9.712;2023-03-03T05:41:21;101700.97;;;-0.16;100.00
55068;BME280;40965;52.368;9.712;2023-03-03T05:43:48;101699.44;;;-0.12;100.00
55068;BME280;40965;52.368;9.712;2023-03-03T05:46:14;101699.50;;;-0.11;100.00
55068;BME280;40965;52.368;9.712;2023-03-03T05:48:41;101692.69;;;-0.10;100.00
55068;BME280;40965;52.368;9.712;2023-03-03T05:51:08;101699.50;;;-0.11;100.00
55068;BME280;40965;52.368;9.712;2023-03-03T05:53:35;101693.63;;;-0.08;100.00
55068;BME280;40965;52.368;9.712;2023-03-03T05:56:02;101709.34;;;-0.04;100.00
55068;BME280;40965;52.368;9.712;2023-03-03T05:58:29;101708.59;;;-0.01;100.00
55068;BME280;40965;52.368;9.712;2023-03-03T06:00:55;101711.25;;;0.01;100.00
55068;BME280;40965;52.368;9.712;2023-03-03T06:03:22;101711.19;;;-0.01;100.00
55068;BME280;40965;52.368;9.712;2023-03-03T06:05:49;101707.16;;;0.04;100.00
55068;BME280;40965;52.368;9.712;2023-03-03T06:08:15;101716.72;;;0.07;100.00
55068;BME280;40965;52.368;9.712;2023-03-03T06:10:41;101724.25;;;0.04;100.00
55068;BME280;40965;52.368;9.712;2023-03-03T06:13:08;101732.00;;;0.04;100.00
55068;BME280;40965;52.368;9.712;2023-03-03T06:15:35;101734.81;;;0.08;100.00
55068;BME280;40965;52.368;9.712;2023-03-03T06:18:02;101733.84;;;0.06;100.00
55068;BME280;40965;52.368;9.712;2023-03-03T06:20:28;101743.59;;;0.12;100.00
55068;BME280;40965;52.368;9.712;2023-03-03T06:22:56;101743.59;;;0.12;100.00
55068;BME280;40965;52.368;9.712;2023-03-03T06:25:27;101747.84;;;0.11;100.00
55068;BME280;40965;52.368;9.712;2023-03-03T06:27:53;101755.50;;;0.10;100.00
55068;BME280;40965;52.368;9.712;2023-03-03T06:30:23;101759.09;;;0.13;100.00
55068;BME280;40965;52.368;9.712;2023-03-03T06:32:51;101767.63;;;0.12;100.00
55068;BME280;40965;52.368;9.712;2023-03-03T06:35:17;101775.44;;;0.14;100.00
55068;BME280;40965;52.368;9.712;2023-03-03T06:37:46;101772.06;;;0.15;100.00
55068;BME280;40965;52.368;9.712;2023-03-03T06:40:15;101779.94;;;0.18;100.00
55068;BME280;40965;52.368;9.712;2023-03-03T06:42:41;101769.00;;;0.22;100.00
55068;BME280;40965;52.368;9.712;2023-03-03T06:45:08;101773.25;;;0.22;100.00
55068;BME280;40965;52.368;9.712;2023-03-03T06:47:35;101775.03;;;0.23;100.00
55068;BME280;40965;52.368;9.712;2023-03-03T06:50:01;101770.94;;;0.26;100.00
55068;BME280;40965;52.368;9.712;2023-03-03T06:52:28;101765.91;;;0.29;100.00
55068;BME280;40965;52.368;9.712;2023-03-03T06:54:58;101771.22;;;0.32;100.00
55068;BME280;40965;52.368;9.712;2023-03-03T06:57:31;101772.19;;;0.35;100.00
55068;BME280;40965;52.368;9.712;2023-03-03T07:00:25;101773.97;;;0.36;100.00
55068;BME280;40965;52.368;9.712;2023-03-03T07:02:59;101772.25;;;0.36;100.00
55068;BME280;40965;52.368;9.712;2023-03-03T07:05:31;101777.28;;;0.33;100.00
55068;BME280;40965;52.368;9.712;2023-03-03T07:07:58;101782.97;;;0.27;100.00
55068;BME280;40965;52.368;9.712;2023-03-03T07:10:27;101777.94;;;0.29;100.00
55068;BME280;40965;52.368;9.712;2023-03-03T07:13:20;101778.47;;;0.23;100.00
55068;BME280;40965;52.368;9.712;2023-03-03T07:15:55;101777.75;;;0.26;100.00
55068;BME280;40965;52.368;9.712;2023-03-03T07:21:27;101779.78;;;0.31;100.00
55068;BME280;40965;52.368;9.712;2023-03-03T07:23:57;101784.28;;;0.36;100.00
55068;BME280;40965;52.368;9.712;2023-03-03T07:26:28;101793.91;;;0.40;100.00
55068;BME280;40965;52.368;9.712;2023-03-03T07:29:21;101787.31;;;0.45;100.00
55068;BME280;40965;52.368;9.712;2023-03-03T07:31:49;101791.66;;;0.46;100.00
55068;BME280;40965;52.368;9.712;2023-03-03T07:34:22;101801.31;;;0.50;100.00
55068;BME280;40965;52.368;9.712;2023-03-03T07:36:53;101804.94;;;0.54;100.00
55068;BME280;40965;52.368;9.712;2023-03-03T07:39:27;101797.34;;;0.57;100.00
55068;BME280;40965;52.368;9.712;2023-03-03T07:42:20;101804.59;;;0.64;100.00
55068;BME280;40965;52.368;9.712;2023-03-03T07:44:50;101805.41;;;0.63;100.00
55068;BME280;40965;52.368;9.712;2023-03-03T07:47:30;101793.91;;;0.56;100.00
55068;BME280;40965;52.368;9.712;2023-03-03T07:50:14;101803.63;;;0.62;100.00
55068;BME280;40965;52.368;9.712;2023-03-03T07:52:55;101808.34;;;0.71;100.00
55068;BME280;40965;52.368;9.712;2023-03-03T07:55:30;101809.38;;;0.74;100.00
55068;BME280;40965;52.368;9.712;2023-03-03T08:01:22;101806.00;;;0.75;100.00
55068;BME280;40965;52.368;9.712;2023-03-03T08:04:10;101814.91;;;0.82;100.00
55068;BME280;40965;52.368;9.712;2023-03-03T08:06:44;101817.72;;;0.87;100.00
55068;BME280;40965;52.368;9.712;2023-03-03T08:09:29;101815.47;;;0.93;100.00
55068;BME280;40965;52.368;9.712;2023-03-03T08:12:34;101821.84;;;0.83;100.00
55068;BME280;40965;52.368;9.712;2023-03-03T08:15:20;101816.63;;;0.81;100.00
55068;BME280;40965;52.368;9.712;2023-03-03T08:17:49;101821.28;;;0.89;100.00
55068;BME280;40965;52.368;9.712;2023-03-03T08:20:38;101815.47;;;0.93;100.00
55068;BME280;40965;52.368;9.712;2023-03-03T08:23:10;101816.63;;;0.99;100.00
55068;BME280;40965;52.368;9.712;2023-03-03T08:25:38;101822.31;;;1.10;100.00
55068;BME280;40965;52.368;9.712;2023-03-03T08:28:07;101828.72;;;1.19;100.00
55068;BME280;40965;52.368;9.712;2023-03-03T08:30:34;101823.47;;;1.17;100.00
55068;BME280;40965;52.368;9.712;2023-03-03T08:33:00;101824.28;;;1.16;100.00
55068;BME280;40965;52.368;9.712;2023-03-03T08:35:27;101826.44;;;1.25;100.00
55068;BME280;40965;52.368;9.712;2023-03-03T08:37:54;101831.97;;;1.32;100.00
55068;BME280;40965;52.368;9.712;2023-03-03T08:40:20;101839.88;;;1.36;100.00
55068;BME280;40965;52.368;9.712;2023-03-03T08:42:49;101838.03;;;1.33;100.00
55068;BME280;40965;52.368;9.712;2023-03-03T08:45:15;101834.34;;;1.28;100.00
55068;BME280;40965;52.368;9.712;2023-03-03T08:47:42;101837.06;;;1.31;100.00
55068;BME280;40965;52.368;9.712;2023-03-03T08:50:09;101832.25;;;1.39;100.00
55068;BME280;40965;52.368;9.712;2023-03-03T08:52:36;101829.88;;;1.43;100.00
55068;BME280;40965;52.368;9.712;2023-03-03T08:55:03;101831.72;;;1.46;100.00
55068;BME280;40965;52.368;9.712;2023-03-03T08:57:30;101837.78;;;1.46;100.00
55068;BME280;40965;52.368;9.712;2023-03-03T08:59:56;101829.38;;;1.51;100.00
55068;BME280;40965;52.368;9.712;2023-03-03T09:02:23;101833.88;;;1.55;100.00
55068;BME280;40965;52.368;9.712;2023-03-03T09:04:50;101831.59;;;1.61;100.00
55068;BME280;40965;52.368;9.712;2023-03-03T09:07:16;101836.06;;;1.65;100.00
55068;BME280;40965;52.368;9.712;2023-03-03T09:09:43;101837.03;;;1.67;100.00
55068;BME280;40965;52.368;9.712;2023-03-03T09:12:18;101833.50;;;1.65;100.00
55068;BME280;40965;52.368;9.712;2023-03-03T09:14:50;101835.25;;;1.66;100.00
55068;BME280;40965;52.368;9.712;2023-03-03T09:17:30;101825.97;;;1.70;100.00
55068;BME280;40965;52.368;9.712;2023-03-03T09:20:16;101830.53;;;1.75;100.00
55068;BME280;40965;52.368;9.712;2023-03-03T09:22:49;101825.13;;;1.71;100.00
55068;BME280;40965;52.368;9.712;2023-03-03T09:25:32;101828.19;;;1.62;100.00
55068;BME280;40965;52.368;9.712;2023-03-03T09:28:01;101825.97;;;1.70;100.00
55068;BME280;40965;52.368;9.712;2023-03-03T09:30:38;101815.78;;;1.73;100.00
55068;BME280;40965;52.368;9.712;2023-03-03T09:33:22;101827.66;;;1.69;100.00
55068;BME280;40965;52.368;9.712;2023-03-03T09:35:53;101831.63;;;1.80;100.00
55068;BME280;40965;52.368;9.712;2023-03-03T09:38:32;101821.72;;;1.90;100.00
55068;BME280;40965;52.368;9.712;2023-03-03T09:41:21;101828.09;;;1.98;100.00
55068;BME280;40965;52.368;9.712;2023-03-03T09:47:24;101833.13;;;2.14;99.96
55068;BME280;40965;52.368;9.712;2023-03-03T09:55:58;101837.22;;;2.09;100.00
55068;BME280;40965;52.368;9.712;2023-03-03T09:58:45;101845.09;;;2.12;99.52
55068;BME280;40965;52.368;9.712;2023-03-03T10:07:23;101846.69;;;2.09;99.30
55068;BME280;40965;52.368;9.712;2023-03-03T10:16:29;101836.50;;;2.53;95.88
55068;BME280;40965;52.368;9.712;2023-03-03T10:19:19;101837.94;;;2.46;95.55
55068;BME280;40965;52.368;9.712;2023-03-03T10:22:06;101840.94;;;2.36;95.96
55068;BME280;40965;52.368;9.712;2023-03-03T10:27:51;101848.47;;;2.29;96.48
55068;BME280;40965;52.368;9.712;2023-03-03T10:30:31;101854.63;;;2.33;96.68
55068;BME280;40965;52.368;9.712;2023-03-03T10:33:34;101855.97;;;2.44;96.37
55068;BME280;40965;52.368;9.712;2023-03-03T10:36:39;101852.25;;;2.38;94.87
55068;BME280;40965;52.368;9.712;2023-03-03T10:39:31;101854.78;;;2.36;95.55
55068;BME280;40965;52.368;9.712;2023-03-03T10:42:16;101850.53;;;2.38;96.71
55068;BME280;40965;52.368;9.712;2023-03-03T10:53:48;101852.63;;;2.67;93.66
55068;BME280;40965;52.368;9.712;2023-03-03T10:56:54;101860.50;;;2.70;92.97
55068;BME280;40965;52.368;9.712;2023-03-03T10:59:41;101861.72;;;2.78;93.56
55068;BME280;40965;52.368;9.712;2023-03-03T11:05:16;101857.22;;;2.93;93.08
55068;BME280;40965;52.368;9.712;2023-03-03T11:08:10;101852.78;;;3.12;92.81
55068;BME280;40965;52.368;9.712;2023-03-03T11:10:50;101850.31;;;3.15;92.07
55068;BME280;40965;52.368;9.712;2023-03-03T11:16:59;101850.63;;;3.02;93.41
55068;BME280;40965;52.368;9.712;2023-03-03T11:20:10;101846.47;;;3.05;92.17
55068;BME280;40965;52.368;9.712;2023-03-03T11:23:08;101843.44;;;3.16;92.93
55068;BME280;40965;52.368;9.712;2023-03-03T11:31:12;101835.69;;;3.16;92.76
55068;BME280;40965;52.368;9.712;2023-03-03T11:34:31;101840.16;;;3.20;92.13
55068;BME280;40965;52.368;9.712;2023-03-03T11:37:21;101833.38;;;3.23;92.29
55068;BME280;40965;52.368;9.712;2023-03-03T11:39:52;101828.00;;;3.40;91.22
55068;BME280;40965;52.368;9.712;2023-03-03T11:42:36;101820.28;;;3.62;89.85
55068;BME280;40965;52.368;9.712;2023-03-03T11:45:17;101821.78;;;3.80;89.27
55068;BME280;40965;52.368;9.712;2023-03-03T11:47:53;101822.53;;;4.24;88.70
55068;BME280;40965;52.368;9.712;2023-03-03T11:50:35;101819.97;;;4.50;85.55
55068;BME280;40965;52.368;9.712;2023-03-03T11:53:31;101819.06;;;4.24;85.73
55068;BME280;40965;52.368;9.712;2023-03-03T11:59:05;101818.97;;;4.22;86.22
55068;BME280;40965;52.368;9.712;2023-03-03T12:01:52;101815.56;;;4.23;86.12
55068;BME280;40965;52.368;9.712;2023-03-03T12:04:26;101816.25;;;4.18;85.84
55068;BME280;40965;52.368;9.712;2023-03-03T12:07:25;101803.50;;;4.24;85.16
55068;BME280;40965;52.368;9.712;2023-03-03T12:10:16;101801.03;;;4.27;86.08
55068;BME280;40965;52.368;9.712;2023-03-03T12:13:02;101797.38;;;4.46;84.79
55068;BME280;40965;52.368;9.712;2023-03-03T12:15:42;101789.25;;;4.37;84.29
55068;BME280;40965;52.368;9.712;2023-03-03T12:18:35;101793.41;;;4.32;85.21
55068;BME280;40965;52.368;9.712;2023-03-03T12:24:16;101787.69;;;4.42;85.44
55068;BME280;40965;52.368;9.712;2023-03-03T12:30:39;101772.97;;;4.67;83.88
55068;BME280;40965;52.368;9.712;2023-03-03T12:33:25;101765.78;;;4.58;83.61
55068;BME280;40965;52.368;9.712;2023-03-03T12:39:26;101770.63;;;4.74;83.74
55068;BME280;40965;52.368;9.712;2023-03-03T12:45:17;101769.19;;;4.83;83.98
55068;BME280;40965;52.368;9.712;2023-03-03T12:47:58;101765.91;;;4.62;83.61
55068;BME280;40965;52.368;9.712;2023-03-03T12:50:37;101771.44;;;4.46;84.30
55068;BME280;40965;52.368;9.712;2023-03-03T12:56:44;101754.69;;;4.62;84.03
55068;BME280;40965;52.368;9.712;2023-03-03T13:08:25;101752.59;;;4.26;85.77
55068;BME280;40965;52.368;9.712;2023-03-03T13:16:36;101736.31;;;5.10;84.66
55068;BME280;40965;52.368;9.712;2023-03-03T13:19:11;101733.13;;;5.78;80.81
55068;BME280;40965;52.368;9.712;2023-03-03T13:22:08;101734.06;;;5.80;78.28
55068;BME280;40965;52.368;9.712;2023-03-03T13:24:53;101738.41;;;5.82;79.66
55068;BME280;40965;52.368;9.712;2023-03-03T13:27:26;101734.75;;;5.75;79.16
55068;BME280;40965;52.368;9.712;2023-03-03T13:33:19;101738.50;;;5.54;81.25
55068;BME280;40965;52.368;9.712;2023-03-03T13:35:57;101734.94;;;5.51;79.99
55068;BME280;40965;52.368;9.712;2023-03-03T13:38:30;101727.72;;;5.40;81.01
55068;BME280;40965;52.368;9.712;2023-03-03T13:41:08;101729.09;;;5.29;81.24
55068;BME280;40965;52.368;9.712;2023-03-03T13:43:48;101722.06;;;5.25;81.93
55068;BME280;40965;52.368;9.712;2023-03-03T13:49:28;101712.22;;;5.14;82.35
55068;BME280;40965;52.368;9.712;2023-03-03T13:52:06;101709.06;;;4.96;83.08
55068;BME280;40965;52.368;9.712;2023-03-03T13:54:49;101706.84;;;5.08;83.26
55068;BME280;40965;52.368;9.712;2023-03-03T13:57:25;101713.78;;;5.09;82.54
55068;BME280;40965;52.368;9.712;2023-03-03T14:03:26;101711.19;;;4.55;84.47
55068;BME280;40965;52.368;9.712;2023-03-03T14:06:04;101711.13;;;4.52;85.39
55068;BME280;40965;52.368;9.712;2023-03-03T14:12:03;101707.59;;;4.50;85.68
55068;BME280;40965;52.368;9.712;2023-03-03T14:15:06;101697.97;;;4.47;84.92
55068;BME280;40965;52.368;9.712;2023-03-03T14:20:33;101702.09;;;4.40;85.21
55068;BME280;40965;52.368;9.712;2023-03-03T14:23:15;101697.59;;;4.35;85.06
55068;BME280;40965;52.368;9.712;2023-03-03T14:25:56;101697.56;;;4.33;85.94
55068;BME280;40965;52.368;9.712;2023-03-03T14:28:26;101694.84;;;4.30;85.97
55068;BME280;40965;52.368;9.712;2023-03-03T14:30:57;101686.91;;;4.25;86.02
55068;BME280;40965;52.368;9.712;2023-03-03T14:33:43;101686.16;;;4.28;86.01
55068;BME280;40965;52.368;9.712;2023-03-03T14:36:12;101690.94;;;4.17;86.35
55068;BME280;40965;52.368;9.712;2023-03-03T14:38:44;101687.78;;;4.00;87.14
55068;BME280;40965;52.368;9.712;2023-03-03T14:41:15;101678.91;;;3.93;87.73
55068;BME280;40965;52.368;9.712;2023-03-03T14:49:38;101689.19;;;3.66;88.75
55068;BME280;40965;52.368;9.712;2023-03-03T14:52:20;101684.50;;;3.56;89.08
55068;BME280;40965;52.368;9.712;2023-03-03T14:54:56;101674.97;;;3.55;89.68
55068;BME280;40965;52.368;9.712;2023-03-03T15:02:58;101667.38;;;3.59;89.96
55068;BME280;40965;52.368;9.712;2023-03-03T15:05:32;101677.09;;;3.42;90.99
55068;BME280;40965;52.368;9.712;2023-03-03T15:10:39;101670.31;;;3.22;92.63
55068;BME280;40965;52.368;9.712;2023-03-03T15:13:30;101673.78;;;3.22;92.34
55068;BME280;40965;52.368;9.712;2023-03-03T15:16:00;101671.03;;;3.18;92.55
55068;BME280;40965;52.368;9.712;2023-03-03T15:18:31;101664.69;;;3.09;92.89
55068;BME280;40965;52.368;9.712;2023-03-03T15:21:05;101656.69;;;3.03;92.96
55068;BME280;40965;52.368;9.712;2023-03-03T15:26:44;101653.56;;;3.59;90.96
55068;BME280;40965;52.368;9.712;2023-03-03T15:32:12;101643.69;;;5.08;84.34
55068;BME280;40965;52.368;9.712;2023-03-03T15:34:55;101640.56;;;5.50;81.43
55068;BME280;40965;52.368;9.712;2023-03-03T15:37:44;101631.91;;;5.83;80.12